AFR31 KATL-LFPG
Flight info
| Callsign | AFR31 |
|---|---|
| Flight time | N/A |
| Altitude | 33000 |
| Route | PHIIL3 HRTWL Q64 KALDA Q108 ZJAAY Q167 RIFLE DCT HTO DCT BOS DCT ALLEX DCT NEEKO/M084F350 NATY GISTI/N0484F370 DCT LESLU DCT ANNET UM25 INGOR/N0496F280 UM25 LUKIP |
| Aircraft | B77W/H-SDE1E2E3FGHIJ2J3J4J5M1RWXY/LB1D1 |
Departure
| Time | N/A |
|---|---|
| Airport | Hartsfield Jackson Atlanta International Airport (KATL) |
Arrival
| Time | 2026-04-30 05:08 |
|---|---|
| Airport | Charles de Gaulle International Airport (LFPG) |
| Time | Latitude | Longitude | Altitude | Speed | Heading |
|---|---|---|---|---|---|
| 2026-04-30 03:57 | 50.70964 | -7.08363 | 36971 ft | 442 kts | 119° |
| 2026-04-30 03:57 | 50.68519 | -7.00798 | 36993 ft | 441 kts | 119° |
| 2026-04-30 03:58 | 50.65722 | -6.92172 | 36977 ft | 440 kts | 119° |
| 2026-04-30 03:58 | 50.62930 | -6.83596 | 36981 ft | 442 kts | 119° |
| 2026-04-30 03:59 | 50.60130 | -6.75019 | 36980 ft | 442 kts | 119° |
| 2026-04-30 03:59 | 50.57308 | -6.66407 | 36977 ft | 441 kts | 119° |
| 2026-04-30 04:00 | 50.54496 | -6.57856 | 36987 ft | 443 kts | 119° |
| 2026-04-30 04:00 | 50.51667 | -6.49282 | 36983 ft | 443 kts | 119° |
| 2026-04-30 04:01 | 50.48828 | -6.40707 | 36985 ft | 442 kts | 119° |
| 2026-04-30 04:01 | 50.45994 | -6.32175 | 36991 ft | 444 kts | 120° |
| 2026-04-30 04:02 | 50.43146 | -6.23632 | 36995 ft | 443 kts | 120° |
| 2026-04-30 04:02 | 50.40279 | -6.15059 | 36986 ft | 443 kts | 120° |
| 2026-04-30 04:03 | 50.37430 | -6.06570 | 36993 ft | 442 kts | 120° |
| 2026-04-30 04:03 | 50.34566 | -5.98066 | 36995 ft | 443 kts | 120° |
| 2026-04-30 04:04 | 50.31681 | -5.89527 | 36996 ft | 441 kts | 120° |
| 2026-04-30 04:04 | 50.28818 | -5.81081 | 36987 ft | 442 kts | 120° |
| 2026-04-30 04:05 | 50.25917 | -5.72553 | 36992 ft | 443 kts | 120° |
| 2026-04-30 04:05 | 50.23024 | -5.64077 | 36986 ft | 443 kts | 120° |
| 2026-04-30 04:06 | 50.20113 | -5.55575 | 36993 ft | 445 kts | 120° |
| 2026-04-30 04:06 | 50.17204 | -5.47110 | 36986 ft | 445 kts | 119° |
| 2026-04-30 04:07 | 50.14283 | -5.38634 | 36986 ft | 446 kts | 119° |
| 2026-04-30 04:08 | 50.09878 | -5.25910 | 36997 ft | 446 kts | 120° |
| 2026-04-30 04:08 | 50.06939 | -5.17455 | 36996 ft | 446 kts | 120° |
| 2026-04-30 04:09 | 50.03992 | -5.09006 | 36997 ft | 445 kts | 120° |
| 2026-04-30 04:09 | 50.01035 | -5.00556 | 36994 ft | 447 kts | 120° |
| 2026-04-30 04:10 | 49.98061 | -4.92086 | 36995 ft | 446 kts | 120° |
| 2026-04-30 04:10 | 49.95080 | -4.83622 | 36997 ft | 448 kts | 120° |
| 2026-04-30 04:11 | 49.92084 | -4.75143 | 36994 ft | 446 kts | 120° |
| 2026-04-30 04:11 | 49.89105 | -4.66743 | 37009 ft | 449 kts | 120° |
| 2026-04-30 04:12 | 49.86099 | -4.58292 | 37010 ft | 447 kts | 120° |
| 2026-04-30 04:12 | 49.83109 | -4.49916 | 37000 ft | 448 kts | 120° |
| 2026-04-30 04:13 | 49.80096 | -4.41502 | 37010 ft | 448 kts | 120° |
| 2026-04-30 04:13 | 49.77065 | -4.33064 | 37007 ft | 448 kts | 121° |
| 2026-04-30 04:14 | 49.74056 | -4.24716 | 37007 ft | 448 kts | 120° |
| 2026-04-30 04:14 | 49.71020 | -4.16318 | 37021 ft | 448 kts | 120° |
| 2026-04-30 04:15 | 49.67980 | -4.07938 | 37016 ft | 448 kts | 120° |
| 2026-04-30 04:15 | 49.65311 | -3.99224 | 37012 ft | 451 kts | 108° |
| 2026-04-30 04:16 | 49.64308 | -3.89642 | 37023 ft | 456 kts | 97° |
| 2026-04-30 04:16 | 49.63805 | -3.79936 | 37014 ft | 456 kts | 97° |
| 2026-04-30 04:17 | 49.63253 | -3.70234 | 37023 ft | 455 kts | 97° |
| 2026-04-30 04:17 | 49.62673 | -3.60595 | 37024 ft | 455 kts | 97° |
| 2026-04-30 04:18 | 49.62066 | -3.50861 | 37023 ft | 455 kts | 97° |
| 2026-04-30 04:18 | 49.61450 | -3.41219 | 37018 ft | 454 kts | 97° |
| 2026-04-30 04:19 | 49.60818 | -3.31520 | 37028 ft | 455 kts | 98° |
| 2026-04-30 04:19 | 49.60182 | -3.21903 | 37026 ft | 455 kts | 98° |
| 2026-04-30 04:20 | 49.59528 | -3.12156 | 37030 ft | 455 kts | 98° |
| 2026-04-30 04:20 | 49.58873 | -3.02526 | 37035 ft | 454 kts | 98° |
| 2026-04-30 04:21 | 49.58207 | -2.92859 | 37037 ft | 454 kts | 98° |
| 2026-04-30 04:21 | 49.57532 | -2.83201 | 37035 ft | 454 kts | 98° |
| 2026-04-30 04:22 | 49.56852 | -2.73563 | 37037 ft | 456 kts | 98° |
| 2026-04-30 04:22 | 49.56162 | -2.63908 | 37041 ft | 457 kts | 98° |
| 2026-04-30 04:23 | 49.55459 | -2.54189 | 37045 ft | 457 kts | 98° |
| 2026-04-30 04:23 | 49.54748 | -2.44479 | 37042 ft | 457 kts | 98° |
| 2026-04-30 04:24 | 49.54029 | -2.34775 | 37048 ft | 458 kts | 98° |
| 2026-04-30 04:24 | 49.53303 | -2.25093 | 37045 ft | 457 kts | 98° |
| 2026-04-30 04:25 | 49.52567 | -2.15372 | 37044 ft | 458 kts | 98° |
| 2026-04-30 04:25 | 49.51827 | -2.05713 | 37047 ft | 459 kts | 98° |
| 2026-04-30 04:26 | 49.51071 | -1.95963 | 37042 ft | 459 kts | 98° |
| 2026-04-30 04:26 | 49.50311 | -1.86256 | 37033 ft | 457 kts | 98° |
| 2026-04-30 04:27 | 49.49541 | -1.76544 | 37041 ft | 459 kts | 98° |
| 2026-04-30 04:27 | 49.48768 | -1.66884 | 37049 ft | 460 kts | 98° |
| 2026-04-30 04:28 | 49.47975 | -1.57095 | 37054 ft | 460 kts | 98° |
| 2026-04-30 04:28 | 49.47183 | -1.47412 | 37057 ft | 460 kts | 98° |
| 2026-04-30 04:29 | 49.46380 | -1.37709 | 37056 ft | 460 kts | 98° |
| 2026-04-30 04:29 | 49.45564 | -1.27934 | 37066 ft | 461 kts | 98° |
| 2026-04-30 04:30 | 49.44741 | -1.18192 | 37070 ft | 461 kts | 98° |
| 2026-04-30 04:30 | 49.43913 | -1.08486 | 37063 ft | 461 kts | 98° |
| 2026-04-30 04:31 | 49.43072 | -0.98720 | 37067 ft | 463 kts | 98° |
| 2026-04-30 04:31 | 49.42227 | -0.89016 | 37078 ft | 462 kts | 98° |
| 2026-04-30 04:31 | 49.41798 | -0.84125 | 36844 ft | 457 kts | 98° |
| 2026-04-30 04:32 | 49.41364 | -0.79222 | 36057 ft | 481 kts | 98° |
| 2026-04-30 04:32 | 49.40915 | -0.74171 | 35184 ft | 501 kts | 98° |
| 2026-04-30 04:32 | 49.40432 | -0.68760 | 34908 ft | 500 kts | 98° |
| 2026-04-30 04:33 | 49.39492 | -0.58296 | 34895 ft | 495 kts | 97° |
| 2026-04-30 04:33 | 49.38548 | -0.47887 | 34859 ft | 494 kts | 97° |
| 2026-04-30 04:34 | 49.37586 | -0.37389 | 34660 ft | 496 kts | 97° |
| 2026-04-30 04:34 | 49.36620 | -0.26953 | 34464 ft | 498 kts | 98° |
| 2026-04-30 04:35 | 49.35838 | -0.16475 | 34305 ft | 498 kts | 95° |
| 2026-04-30 04:35 | 49.35199 | -0.05867 | 34169 ft | 498 kts | 95° |
| 2026-04-30 04:36 | 49.34545 | 0.04636 | 34170 ft | 496 kts | 95° |
| 2026-04-30 04:36 | 49.33871 | 0.15162 | 34170 ft | 496 kts | 95° |
| 2026-04-30 04:37 | 49.33188 | 0.25615 | 34171 ft | 496 kts | 95° |
| 2026-04-30 04:37 | 49.32492 | 0.36079 | 34173 ft | 496 kts | 95° |
| 2026-04-30 04:38 | 49.31785 | 0.46552 | 34171 ft | 497 kts | 95° |
| 2026-04-30 04:38 | 49.31339 | 0.57090 | 34168 ft | 496 kts | 89° |
| 2026-04-30 04:39 | 49.31288 | 0.67705 | 34168 ft | 496 kts | 90° |
| 2026-04-30 04:39 | 49.31202 | 0.78226 | 34177 ft | 496 kts | 90° |
| 2026-04-30 04:40 | 49.31087 | 0.88782 | 34180 ft | 496 kts | 90° |
| 2026-04-30 04:40 | 49.30956 | 0.99152 | 34134 ft | 474 kts | 90° |
| 2026-04-30 04:40 | 49.30887 | 1.04160 | 34094 ft | 456 kts | 90° |
| 2026-04-30 04:41 | 49.30820 | 1.08873 | 33929 ft | 442 kts | 90° |
| 2026-04-30 04:41 | 49.30750 | 1.13577 | 33401 ft | 437 kts | 90° |
| 2026-04-30 04:41 | 49.30679 | 1.18200 | 32734 ft | 434 kts | 90° |
| 2026-04-30 04:41 | 49.30607 | 1.22772 | 32018 ft | 433 kts | 90° |
| 2026-04-30 04:42 | 49.30532 | 1.27358 | 31453 ft | 428 kts | 91° |
| 2026-04-30 04:42 | 49.30456 | 1.31899 | 31061 ft | 420 kts | 91° |
| 2026-04-30 04:42 | 49.30397 | 1.35326 | 30708 ft | 415 kts | 91° |
| 2026-04-30 04:42 | 49.30303 | 1.40647 | 29967 ft | 412 kts | 91° |
| 2026-04-30 04:43 | 49.30225 | 1.44955 | 29475 ft | 406 kts | 91° |
| 2026-04-30 04:43 | 49.30146 | 1.49235 | 28939 ft | 402 kts | 91° |
| 2026-04-30 04:43 | 49.30065 | 1.53510 | 28403 ft | 398 kts | 91° |
| 2026-04-30 04:43 | 49.29984 | 1.57715 | 27908 ft | 392 kts | 92° |
| 2026-04-30 04:44 | 49.29826 | 1.61850 | 27346 ft | 388 kts | 94° |
| 2026-04-30 04:44 | 49.29637 | 1.65915 | 26827 ft | 384 kts | 95° |
| 2026-04-30 04:44 | 49.29448 | 1.69985 | 26300 ft | 380 kts | 95° |
| 2026-04-30 04:44 | 49.29263 | 1.73995 | 25772 ft | 375 kts | 95° |
| 2026-04-30 04:45 | 49.29201 | 1.77935 | 25193 ft | 373 kts | 86° |
| 2026-04-30 04:45 | 49.29711 | 1.81803 | 24631 ft | 372 kts | 73° |
| 2026-04-30 04:45 | 49.30829 | 1.85421 | 24064 ft | 373 kts | 60° |
| 2026-04-30 04:45 | 49.32474 | 1.88501 | 23524 ft | 375 kts | 47° |
| 2026-04-30 04:46 | 49.34558 | 1.90885 | 22999 ft | 378 kts | 34° |
| 2026-04-30 04:46 | 49.36984 | 1.92453 | 22418 ft | 383 kts | 20° |
| 2026-04-30 04:46 | 49.39688 | 1.93075 | 21815 ft | 390 kts | 5° |
| 2026-04-30 04:46 | 49.42405 | 1.92629 | 21229 ft | 395 kts | 350° |
| 2026-04-30 04:47 | 49.44978 | 1.91131 | 20654 ft | 400 kts | 334° |
| 2026-04-30 04:47 | 49.47258 | 1.88610 | 20095 ft | 402 kts | 318° |
| 2026-04-30 04:47 | 49.49012 | 1.85293 | 19588 ft | 401 kts | 302° |
| 2026-04-30 04:47 | 49.50160 | 1.81336 | 19055 ft | 398 kts | 285° |
| 2026-04-30 04:48 | 49.50617 | 1.77144 | 18512 ft | 395 kts | 273° |
| 2026-04-30 04:48 | 49.50776 | 1.72981 | 17942 ft | 390 kts | 272° |
| 2026-04-30 04:48 | 49.50920 | 1.68797 | 17191 ft | 384 kts | 272° |
| 2026-04-30 04:48 | 49.51071 | 1.64710 | 16445 ft | 379 kts | 272° |
| 2026-04-30 04:49 | 49.51198 | 1.60655 | 15709 ft | 373 kts | 266° |
| 2026-04-30 04:49 | 49.50871 | 1.56772 | 14932 ft | 366 kts | 252° |
| 2026-04-30 04:49 | 49.49966 | 1.53175 | 14171 ft | 356 kts | 238° |
| 2026-04-30 04:49 | 49.48580 | 1.50112 | 13431 ft | 347 kts | 224° |
| 2026-04-30 04:50 | 49.46828 | 1.47686 | 12651 ft | 339 kts | 211° |
| 2026-04-30 04:50 | 49.44781 | 1.45940 | 11850 ft | 332 kts | 198° |
| 2026-04-30 04:50 | 49.42610 | 1.44969 | 11086 ft | 324 kts | 186° |
| 2026-04-30 04:50 | 49.40400 | 1.44762 | 10549 ft | 326 kts | 173° |
| 2026-04-30 04:51 | 49.38170 | 1.45348 | 10523 ft | 323 kts | 161° |
| 2026-04-30 04:51 | 49.36073 | 1.46653 | 10518 ft | 320 kts | 149° |
| 2026-04-30 04:51 | 49.34239 | 1.48574 | 10510 ft | 318 kts | 137° |
| 2026-04-30 04:51 | 49.32717 | 1.51023 | 10504 ft | 317 kts | 126° |
| 2026-04-30 04:52 | 49.31554 | 1.53927 | 10502 ft | 316 kts | 115° |
| 2026-04-30 04:52 | 49.30830 | 1.57075 | 10532 ft | 308 kts | 104° |
| 2026-04-30 04:52 | 49.30416 | 1.60322 | 10525 ft | 302 kts | 100° |
| 2026-04-30 04:52 | 49.30114 | 1.63410 | 10523 ft | 289 kts | 98° |
| 2026-04-30 04:53 | 49.29869 | 1.66439 | 10519 ft | 278 kts | 98° |
| 2026-04-30 04:53 | 49.29666 | 1.69327 | 10510 ft | 267 kts | 97° |
| 2026-04-30 04:53 | 49.29488 | 1.72157 | 10436 ft | 260 kts | 96° |
| 2026-04-30 04:53 | 49.29329 | 1.74894 | 10195 ft | 260 kts | 96° |
| 2026-04-30 04:54 | 49.29107 | 1.77692 | 9933 ft | 259 kts | 104° |
| 2026-04-30 04:54 | 49.28590 | 1.80323 | 9717 ft | 258 kts | 110° |
| 2026-04-30 04:54 | 49.27865 | 1.82874 | 9508 ft | 256 kts | 116° |
| 2026-04-30 04:54 | 49.26976 | 1.85201 | 9348 ft | 248 kts | 123° |
| 2026-04-30 04:55 | 49.25963 | 1.87274 | 9100 ft | 244 kts | 128° |
| 2026-04-30 04:55 | 49.24770 | 1.89224 | 8806 ft | 258 kts | 134° |
| 2026-04-30 04:55 | 49.23405 | 1.91002 | 8445 ft | 259 kts | 140° |
| 2026-04-30 04:55 | 49.21894 | 1.92542 | 8094 ft | 260 kts | 147° |
| 2026-04-30 04:56 | 49.20325 | 1.93844 | 7753 ft | 259 kts | 148° |
| 2026-04-30 04:56 | 49.18761 | 1.95241 | 7410 ft | 258 kts | 146° |
| 2026-04-30 04:56 | 49.17082 | 1.96136 | 7170 ft | 258 kts | 170° |
| 2026-04-30 04:56 | 49.15315 | 1.96113 | 7165 ft | 258 kts | 183° |
| 2026-04-30 04:57 | 49.13534 | 1.95713 | 7070 ft | 254 kts | 176° |
| 2026-04-30 04:57 | 49.11845 | 1.96218 | 6604 ft | 251 kts | 151° |
| 2026-04-30 04:57 | 49.10415 | 1.97679 | 6290 ft | 245 kts | 139° |
| 2026-04-30 04:57 | 49.09071 | 1.99299 | 6000 ft | 242 kts | 139° |
| 2026-04-30 04:58 | 49.07761 | 2.00886 | 5695 ft | 240 kts | 139° |
| 2026-04-30 04:58 | 49.06461 | 2.02460 | 5424 ft | 237 kts | 139° |
| 2026-04-30 04:58 | 49.05198 | 2.03987 | 5378 ft | 224 kts | 138° |
| 2026-04-30 04:58 | 49.04017 | 2.05413 | 5362 ft | 210 kts | 138° |
| 2026-04-30 04:59 | 49.02909 | 2.06751 | 5266 ft | 201 kts | 138° |
| 2026-04-30 04:59 | 49.01815 | 2.08073 | 5030 ft | 199 kts | 138° |
| 2026-04-30 04:59 | 49.00746 | 2.09364 | 4973 ft | 188 kts | 137° |
| 2026-04-30 04:59 | 48.99759 | 2.10554 | 4961 ft | 175 kts | 137° |
| 2026-04-30 05:00 | 48.98837 | 2.11667 | 4963 ft | 164 kts | 137° |
| 2026-04-30 05:00 | 48.97960 | 2.12750 | 4967 ft | 162 kts | 131° |
| 2026-04-30 05:00 | 48.97395 | 2.14192 | 4977 ft | 159 kts | 111° |
| 2026-04-30 05:00 | 48.97134 | 2.15809 | 4960 ft | 159 kts | 96° |
| 2026-04-30 05:01 | 48.97121 | 2.17490 | 4967 ft | 159 kts | 89° |
| 2026-04-30 05:01 | 48.97195 | 2.19172 | 4971 ft | 158 kts | 88° |
| 2026-04-30 05:01 | 48.97295 | 2.20848 | 4949 ft | 161 kts | 87° |
| 2026-04-30 05:01 | 48.97402 | 2.22565 | 4729 ft | 160 kts | 87° |
| 2026-04-30 05:02 | 48.97504 | 2.24208 | 4525 ft | 156 kts | 87° |
| 2026-04-30 05:02 | 48.97602 | 2.25843 | 4334 ft | 155 kts | 88° |
| 2026-04-30 05:02 | 48.97697 | 2.27488 | 4132 ft | 155 kts | 88° |
| 2026-04-30 05:02 | 48.97789 | 2.29107 | 3927 ft | 153 kts | 88° |
| 2026-04-30 05:03 | 48.97879 | 2.30714 | 3721 ft | 152 kts | 88° |
| 2026-04-30 05:03 | 48.97969 | 2.32316 | 3518 ft | 151 kts | 88° |
| 2026-04-30 05:03 | 48.98055 | 2.33877 | 3314 ft | 150 kts | 88° |
| 2026-04-30 05:03 | 48.98143 | 2.35461 | 3112 ft | 149 kts | 89° |
| 2026-04-30 05:04 | 48.98229 | 2.37018 | 2909 ft | 148 kts | 89° |
| 2026-04-30 05:04 | 48.98315 | 2.38563 | 2705 ft | 144 kts | 89° |
| 2026-04-30 05:04 | 48.98396 | 2.40032 | 2513 ft | 135 kts | 89° |
| 2026-04-30 05:04 | 48.98471 | 2.41392 | 2341 ft | 122 kts | 89° |
| 2026-04-30 05:05 | 48.98538 | 2.42645 | 2178 ft | 119 kts | 89° |
| 2026-04-30 05:05 | 48.98607 | 2.43891 | 2015 ft | 117 kts | 89° |
| 2026-04-30 05:05 | 48.98674 | 2.45128 | 1860 ft | 117 kts | 89° |
| 2026-04-30 05:06 | 48.98808 | 2.47596 | 1519 ft | 115 kts | 89° |
| 2026-04-30 05:06 | 48.98872 | 2.48794 | 1357 ft | 115 kts | 89° |
| 2026-04-30 05:06 | 48.98940 | 2.50030 | 1206 ft | 118 kts | 88° |
| 2026-04-30 05:06 | 48.99001 | 2.51283 | 1032 ft | 121 kts | 88° |
| 2026-04-30 05:07 | 48.99079 | 2.52551 | 858 ft | 122 kts | 86° |
| 2026-04-30 05:07 | 48.99153 | 2.53870 | 697 ft | 124 kts | 86° |
| 2026-04-30 05:07 | 48.99220 | 2.55181 | 533 ft | 127 kts | 85° |
| 2026-04-30 05:07 | 48.99286 | 2.56530 | 376 ft | 129 kts | 84° |
| 2026-04-30 05:08 | 48.99358 | 2.57802 | 330 ft | 103 kts | 84° |
| 2026-04-30 05:08 | 48.99401 | 2.58602 | 328 ft | 50 kts | 85° |
| 2026-04-30 05:08 | 48.99421 | 2.59009 | 327 ft | 25 kts | 84° |
| 2026-04-30 05:08 | 48.99454 | 2.59213 | 327 ft | 15 kts | 66° |
| 2026-04-30 05:09 | 48.99498 | 2.59355 | 327 ft | 14 kts | 65° |
| 2026-04-30 05:09 | 48.99536 | 2.59485 | 328 ft | 12 kts | 65° |
| 2026-04-30 05:09 | 48.99571 | 2.59603 | 328 ft | 11 kts | 65° |
| 2026-04-30 05:09 | 48.99625 | 2.59688 | 327 ft | 11 kts | 17° |
| 2026-04-30 05:10 | 48.99704 | 2.59688 | 328 ft | 10 kts | 354° |
| 2026-04-30 05:10 | 48.99771 | 2.59679 | 329 ft | 8 kts | 354° |
| 2026-04-30 05:10 | 48.99827 | 2.59671 | 330 ft | 7 kts | 354° |
| 2026-04-30 05:10 | 48.99876 | 2.59665 | 330 ft | 7 kts | 355° |
| 2026-04-30 05:11 | 48.99935 | 2.59658 | 330 ft | 9 kts | 355° |
| 2026-04-30 05:11 | 49.00006 | 2.59650 | 330 ft | 10 kts | 356° |
| 2026-04-30 05:11 | 49.00068 | 2.59607 | 332 ft | 9 kts | 302° |
| 2026-04-30 05:11 | 49.00075 | 2.59489 | 332 ft | 12 kts | 266° |
| 2026-04-30 05:12 | 49.00066 | 2.59350 | 333 ft | 13 kts | 264° |
| 2026-04-30 05:12 | 49.00058 | 2.59200 | 333 ft | 15 kts | 264° |
| 2026-04-30 05:12 | 49.00049 | 2.59032 | 334 ft | 16 kts | 265° |
| 2026-04-30 05:12 | 49.00039 | 2.58850 | 334 ft | 16 kts | 265° |
| 2026-04-30 05:13 | 49.00100 | 2.58771 | 334 ft | 13 kts | 355° |
| 2026-04-30 05:13 | 49.00200 | 2.58760 | 334 ft | 14 kts | 355° |
| 2026-04-30 05:13 | 49.00299 | 2.58748 | 336 ft | 14 kts | 355° |
| 2026-04-30 05:13 | 49.00399 | 2.58738 | 337 ft | 15 kts | 355° |
| 2026-04-30 05:14 | 49.00507 | 2.58725 | 337 ft | 16 kts | 355° |
| 2026-04-30 05:14 | 49.00600 | 2.58714 | 339 ft | 4 kts | 355° |
| 2026-04-30 05:14 | 49.00619 | 2.58704 | 339 ft | 2 kts | 317° |
| 2026-04-30 05:14 | 49.00629 | 2.58665 | 339 ft | 6 kts | 278° |
| 2026-04-30 05:15 | 49.00629 | 2.58640 | 339 ft | 3 kts | 259° |
| 2026-04-30 05:15 | 49.00626 | 2.58602 | 339 ft | 2 kts | 264° |
| 2026-04-30 05:15 | 49.00625 | 2.58584 | 339 ft | 0 kts | 265° |
| 2026-04-30 05:15 | 49.00625 | 2.58583 | 339 ft | 0 kts | 265° |